createdAt,value
2022-08-03T00:01:29.252Z,35.27
2022-08-03T00:03:56.358Z,35.04
2022-08-03T00:06:23.101Z,34.82
2022-08-03T00:08:49.784Z,34.94
2022-08-03T00:11:16.538Z,34.79
2022-08-03T00:13:44.092Z,35.63
2022-08-03T00:16:11.640Z,34.98
2022-08-03T00:18:38.444Z,35.05
2022-08-03T00:21:05.805Z,35.23
2022-08-03T00:23:51.888Z,35.13
2022-08-03T00:26:25.152Z,35.24
2022-08-03T00:28:51.897Z,35.44
2022-08-03T00:31:23.134Z,35.50
2022-08-03T00:34:06.000Z,36.64
2022-08-03T00:36:33.651Z,36.50
2022-08-03T00:39:00.443Z,37.03
2022-08-03T00:41:27.198Z,37.50
2022-08-03T00:43:53.989Z,37.82
2022-08-03T00:46:22.342Z,36.52
2022-08-03T00:48:51.079Z,36.49
2022-08-03T00:51:20.052Z,36.14
2022-08-03T00:53:46.894Z,36.02
2022-08-03T00:56:17.985Z,35.94
2022-08-03T00:58:46.566Z,36.58
2022-08-03T01:01:14.646Z,36.65
2022-08-03T01:03:41.980Z,36.31
2022-08-03T01:06:23.099Z,36.31
2022-08-03T01:09:09.085Z,36.38
2022-08-03T01:12:12.019Z,36.18
2022-08-03T01:14:44.693Z,35.86
2022-08-03T01:17:27.911Z,35.95
2022-08-03T01:20:07.514Z,35.98
2022-08-03T01:23:08.865Z,36.27
2022-08-03T01:25:59.648Z,36.80
2022-08-03T01:28:38.948Z,37.35
2022-08-03T01:31:10.309Z,37.21
2022-08-03T01:33:46.957Z,37.14
2022-08-03T01:36:18.007Z,37.04
2022-08-03T01:38:55.317Z,37.04
2022-08-03T01:41:27.766Z,37.19
2022-08-03T01:44:26.863Z,37.64
2022-08-03T01:46:47.564Z,37.24
2022-08-03T01:49:16.922Z,37.35
2022-08-03T01:51:56.607Z,36.98
2022-08-03T01:54:36.316Z,36.60
2022-08-03T01:57:04.179Z,35.98
2022-08-03T01:59:35.145Z,35.79
2022-08-03T02:02:28.907Z,35.75
2022-08-03T02:04:52.279Z,35.20
2022-08-03T02:07:20.196Z,35.36
2022-08-03T02:09:54.130Z,34.70
2022-08-03T02:12:25.078Z,34.29
2022-08-03T02:14:52.747Z,33.86
2022-08-03T02:17:39.349Z,33.30
2022-08-03T02:20:10.887Z,33.41
2022-08-03T02:22:41.238Z,32.51
2022-08-03T02:25:11.286Z,32.64
2022-08-03T02:27:44.080Z,32.60
2022-08-03T02:30:12.489Z,32.52
2022-08-03T02:32:42.979Z,32.22
2022-08-03T02:35:17.083Z,31.68
2022-08-03T02:38:03.101Z,31.57
2022-08-03T02:40:32.160Z,31.85
2022-08-03T02:43:05.337Z,32.45
2022-08-03T02:45:36.069Z,32.63
2022-08-03T02:48:05.637Z,32.22
2022-08-03T02:50:35.090Z,32.39
2022-08-03T02:53:03.402Z,32.81
2022-08-03T02:55:32.787Z,32.53
2022-08-03T02:58:01.505Z,32.41
2022-08-03T03:00:31.315Z,32.70
2022-08-03T03:03:00.653Z,32.48
2022-08-03T03:05:52.367Z,32.64
2022-08-03T03:08:25.791Z,34.06
2022-08-03T03:10:55.966Z,33.74
2022-08-03T03:13:23.767Z,32.98
2022-08-03T03:15:52.083Z,34.27
2022-08-03T03:18:22.881Z,33.69
2022-08-03T03:20:54.439Z,33.73
2022-08-03T03:23:26.830Z,33.62
2022-08-03T03:25:55.971Z,33.92
2022-08-03T03:28:25.927Z,34.19
2022-08-03T03:30:53.436Z,34.10
2022-08-03T03:33:22.438Z,34.10
2022-08-03T03:35:50.423Z,34.65
2022-08-03T03:38:17.850Z,35.10
2022-08-03T03:40:44.726Z,34.96
2022-08-03T03:43:13.071Z,35.01
2022-08-03T03:45:43.515Z,34.89
2022-08-03T03:48:10.735Z,34.83
2022-08-03T03:50:40.915Z,35.15
2022-08-03T03:53:11.269Z,34.88
2022-08-03T03:55:59.793Z,35.21
2022-08-03T03:58:25.983Z,34.46
2022-08-03T04:00:53.865Z,34.60
2022-08-03T04:03:20.817Z,34.47
2022-08-03T04:06:05.864Z,35.24
2022-08-03T04:08:51.119Z,34.94
2022-08-03T04:11:29.308Z,35.02
2022-08-03T04:14:20.240Z,34.86
2022-08-03T04:16:52.032Z,34.83
2022-08-03T04:19:29.473Z,35.32
2022-08-03T04:22:01.687Z,35.50
2022-08-03T04:24:39.439Z,36.17
2022-08-03T04:27:09.564Z,35.93
2022-08-03T04:29:46.395Z,35.65
2022-08-03T04:32:17.089Z,35.51
2022-08-03T04:34:44.410Z,35.60
2022-08-03T04:37:44.109Z,35.47
2022-08-03T04:40:22.832Z,35.00
2022-08-03T04:42:50.393Z,34.94
2022-08-03T04:45:19.331Z,35.17
2022-08-03T04:47:46.805Z,34.68
2022-08-03T04:50:17.049Z,34.92
2022-08-03T04:52:48.317Z,35.13
2022-08-03T04:55:34.567Z,34.79
2022-08-03T04:58:03.076Z,34.59
2022-08-03T05:00:30.115Z,34.55
2022-08-03T05:02:56.950Z,33.64
2022-08-03T05:05:24.145Z,33.32
2022-08-03T05:07:51.281Z,32.74
2022-08-03T05:10:18.590Z,32.62
2022-08-03T05:12:48.113Z,32.30
2022-08-03T05:15:15.831Z,32.07
2022-08-03T05:17:42.882Z,32.32
2022-08-03T05:20:11.202Z,32.11
2022-08-03T05:22:37.895Z,32.77
2022-08-03T05:25:05.236Z,31.50
2022-08-03T05:27:31.972Z,30.85
2022-08-03T05:30:27.347Z,31.02
2022-08-03T05:32:45.758Z,30.62
2022-08-03T05:35:56.793Z,30.39
2022-08-03T05:37:59.172Z,30.52
2022-08-03T05:40:25.873Z,31.00
2022-08-03T05:42:53.760Z,31.24
2022-08-03T05:45:24.229Z,31.28
2022-08-03T05:48:11.899Z,31.07
2022-08-03T05:50:42.709Z,30.61
2022-08-03T05:53:09.837Z,30.59
2022-08-03T05:55:36.957Z,30.24
2022-08-03T05:58:09.118Z,30.66
2022-08-03T06:00:41.228Z,29.98
2022-08-03T06:03:07.980Z,31.08
2022-08-03T06:05:36.567Z,31.26
2022-08-03T06:08:10.186Z,30.37
2022-08-03T06:10:42.299Z,29.65
2022-08-03T06:13:09.073Z,29.05
2022-08-03T06:15:36.432Z,28.91
2022-08-03T06:18:03.403Z,28.48
2022-08-03T06:20:30.344Z,28.58
2022-08-03T06:23:00.399Z,28.13
2022-08-03T06:25:28.142Z,28.25
2022-08-03T06:27:54.819Z,28.54
2022-08-03T06:30:21.726Z,28.20
2022-08-03T06:32:51.922Z,28.18
2022-08-03T06:35:19.963Z,27.54
2022-08-03T06:37:49.509Z,27.73
2022-08-03T06:40:31.585Z,27.61
2022-08-03T06:43:00.225Z,27.48
2022-08-03T06:45:31.825Z,26.92
2022-08-03T06:48:11.871Z,26.61
2022-08-03T06:50:41.480Z,27.11
2022-08-03T06:53:10.266Z,26.48
2022-08-03T06:55:44.988Z,25.91
2022-08-03T06:58:11.702Z,25.76
2022-08-03T07:00:38.497Z,25.44
2022-08-03T07:03:05.233Z,25.87
2022-08-03T07:05:34.991Z,26.77
2022-08-03T07:08:03.190Z,26.16
2022-08-03T07:10:29.911Z,26.56
2022-08-03T07:12:57.039Z,26.12
2022-08-03T07:15:55.304Z,25.48
2022-08-03T07:18:11.302Z,24.59
2022-08-03T07:20:38.098Z,24.46
2022-08-03T07:23:04.851Z,24.88
2022-08-03T07:25:31.547Z,24.71
2022-08-03T07:27:58.279Z,24.71
2022-08-03T07:30:25.091Z,24.59
2022-08-03T07:32:51.936Z,25.76
2022-08-03T07:35:24.505Z,24.74
2022-08-03T07:37:54.693Z,23.50
2022-08-03T07:40:22.814Z,23.70
2022-08-03T07:42:52.198Z,23.03
2022-08-03T07:45:23.367Z,22.94
2022-08-03T07:47:53.598Z,23.11
2022-08-03T07:50:21.462Z,23.63
2022-08-03T07:52:48.623Z,23.64
2022-08-03T07:55:17.152Z,23.27
2022-08-03T07:57:44.258Z,23.43
2022-08-03T08:00:20.481Z,23.78
2022-08-03T08:02:47.200Z,23.63
2022-08-03T08:05:14.100Z,23.80
2022-08-03T08:07:41.206Z,23.40
2022-08-03T08:10:10.319Z,22.68
2022-08-03T08:12:39.217Z,23.55
2022-08-03T08:15:07.517Z,24.10
2022-08-03T08:17:49.545Z,25.45
2022-08-03T08:20:27.980Z,25.80
2022-08-03T08:23:06.911Z,24.69
2022-08-03T08:25:52.790Z,24.41
2022-08-03T08:28:30.931Z,25.16
2022-08-03T08:31:00.070Z,25.24
2022-08-03T08:33:37.353Z,25.69
2022-08-03T08:36:15.617Z,25.24
2022-08-03T08:38:44.620Z,24.17
2022-08-03T08:41:13.937Z,25.12
2022-08-03T08:43:42.247Z,25.91
2022-08-03T08:46:13.075Z,24.90
2022-08-03T08:48:51.896Z,25.06
2022-08-03T08:51:50.627Z,24.92
2022-08-03T08:54:15.570Z,25.45
2022-08-03T08:56:43.285Z,24.57
2022-08-03T08:59:10.149Z,25.07
2022-08-03T09:01:36.894Z,24.07
2022-08-03T09:04:07.359Z,25.12
2022-08-03T09:06:34.160Z,24.56
2022-08-03T09:09:01.293Z,25.10
2022-08-03T09:12:01.083Z,25.17
2022-08-03T09:14:39.274Z,24.64
2022-08-03T09:17:04.507Z,24.88
2022-08-03T09:19:34.200Z,24.80
2022-08-03T09:22:16.635Z,25.27
2022-08-03T09:25:23.269Z,25.25
2022-08-03T09:27:48.358Z,25.10
2022-08-03T09:30:33.886Z,24.61
2022-08-03T09:33:04.763Z,24.76
2022-08-03T09:38:24.129Z,25.60
2022-08-03T09:40:53.824Z,24.32
2022-08-03T09:43:25.972Z,24.59
2022-08-03T09:46:04.415Z,23.56
2022-08-03T09:48:35.156Z,23.32
2022-08-03T09:51:13.239Z,24.50
2022-08-03T09:53:59.121Z,24.26
2022-08-03T09:56:47.334Z,25.24
2022-08-03T09:59:28.778Z,24.55
2022-08-03T10:01:58.321Z,24.31
2022-08-03T10:04:25.858Z,24.46
2022-08-03T10:07:23.983Z,24.02
2022-08-03T10:10:28.537Z,21.91
2022-08-03T10:12:49.428Z,23.19
2022-08-03T10:16:21.275Z,23.72
2022-08-03T10:18:02.909Z,24.12
2022-08-03T10:20:29.757Z,24.08
2022-08-03T10:22:57.706Z,22.84
2022-08-03T10:25:33.239Z,22.61
2022-08-03T10:28:04.482Z,22.41
2022-08-03T10:30:33.084Z,21.72
2022-08-03T10:33:49.988Z,22.62
2022-08-03T10:35:59.448Z,21.34
2022-08-03T10:38:52.986Z,22.51
2022-08-03T10:41:31.302Z,22.26
2022-08-03T10:44:15.586Z,22.85
2022-08-03T10:46:45.161Z,22.83
2022-08-03T10:49:33.537Z,22.40
2022-08-03T10:52:13.339Z,23.58
2022-08-03T10:55:10.669Z,24.12
2022-08-03T10:57:50.080Z,24.41
2022-08-03T11:00:25.061Z,23.10
2022-08-03T11:03:14.561Z,22.80
2022-08-03T11:05:48.149Z,20.69
2022-08-03T11:08:24.488Z,21.20
2022-08-03T11:11:00.598Z,22.81
2022-08-03T11:13:31.914Z,22.59
2022-08-03T11:16:04.778Z,22.42
2022-08-03T11:18:33.457Z,23.63
2022-08-03T11:21:01.065Z,23.46
2022-08-03T11:24:04.858Z,23.21
2022-08-03T11:26:32.907Z,23.19
2022-08-03T11:29:32.010Z,22.96
2022-08-03T11:31:59.130Z,23.15
2022-08-03T11:34:26.466Z,22.29
2022-08-03T11:37:27.574Z,22.39
2022-08-03T11:39:58.177Z,23.26
2022-08-03T11:42:25.501Z,22.53
2022-08-03T11:44:57.785Z,22.51
2022-08-03T11:47:27.337Z,21.06
2022-08-03T11:50:03.099Z,20.45
2022-08-03T11:52:39.934Z,20.82
2022-08-03T11:55:12.849Z,21.42
2022-08-03T11:59:18.753Z,21.54
2022-08-03T12:00:32.520Z,21.08
2022-08-03T12:03:06.781Z,20.77
2022-08-03T12:05:54.800Z,20.79
2022-08-03T12:08:27.647Z,20.85
2022-08-03T12:10:57.108Z,21.14
2022-08-03T12:14:44.395Z,21.71
2022-08-03T12:16:22.440Z,21.74
2022-08-03T12:18:59.880Z,21.04
2022-08-03T12:21:27.253Z,22.49
2022-08-03T12:24:04.246Z,22.37
2022-08-03T12:26:58.195Z,21.25
2022-08-03T12:29:27.229Z,20.37
2022-08-03T12:31:54.045Z,20.93
2022-08-03T12:34:20.876Z,21.46
2022-08-03T12:36:59.447Z,20.99
2022-08-03T12:39:30.970Z,20.60
2022-08-03T12:41:58.190Z,20.58
2022-08-03T12:44:36.093Z,19.43
2022-08-03T12:47:06.672Z,19.14
2022-08-03T12:49:50.673Z,19.64
2022-08-03T12:52:19.276Z,19.13
2022-08-03T12:55:00.391Z,19.92
2022-08-03T12:57:42.254Z,17.92
2022-08-03T13:00:28.767Z,18.86
2022-08-03T13:03:39.747Z,20.36
2022-08-03T13:05:57.364Z,20.20
2022-08-03T13:08:25.678Z,19.12
2022-08-03T13:10:52.745Z,19.08
2022-08-03T13:13:37.525Z,20.87
2022-08-03T13:16:04.649Z,21.00
2022-08-03T13:18:31.396Z,21.40
2022-08-03T13:21:00.318Z,21.68
2022-08-03T13:23:27.136Z,20.44
2022-08-03T13:25:55.681Z,19.14
2022-08-03T13:28:23.230Z,18.48
2022-08-03T13:30:50.151Z,18.10
2022-08-03T13:33:17.630Z,18.06
2022-08-03T13:35:44.599Z,20.36
2022-08-03T13:38:11.368Z,19.25
2022-08-03T13:40:38.479Z,18.85
2022-08-03T13:43:09.461Z,18.45
2022-08-03T13:45:36.454Z,18.75
2022-08-03T13:48:03.287Z,17.48
2022-08-03T13:50:31.391Z,18.12
2022-08-03T13:52:58.160Z,17.62
2022-08-03T13:55:24.939Z,17.11
2022-08-03T13:58:11.637Z,16.67
2022-08-03T14:00:39.668Z,15.93
2022-08-03T14:03:13.813Z,16.56
2022-08-03T14:05:43.246Z,15.20
2022-08-03T14:08:11.265Z,15.08
2022-08-03T14:10:43.892Z,14.12
2022-08-03T14:13:12.991Z,14.15
2022-08-03T14:15:50.171Z,16.01
2022-08-03T14:18:27.779Z,16.67
2022-08-03T14:21:03.382Z,15.63
2022-08-03T14:23:33.323Z,15.17
2022-08-03T14:26:00.150Z,14.29
2022-08-03T14:28:26.892Z,14.33
2022-08-03T14:30:56.015Z,15.08
2022-08-03T14:33:24.044Z,14.65
2022-08-03T14:35:52.074Z,14.13
2022-08-03T14:38:20.132Z,14.01
2022-08-03T14:40:47.613Z,13.34
2022-08-03T14:43:15.348Z,12.63
2022-08-03T14:45:42.687Z,12.25
2022-08-03T14:50:29.742Z,11.22
2022-08-03T14:50:56.769Z,10.99
2022-08-03T14:53:23.884Z,10.95
2022-08-03T14:55:51.992Z,13.27
2022-08-03T14:58:25.242Z,14.48
2022-08-03T15:00:54.272Z,13.75
2022-08-03T15:03:25.671Z,15.10
2022-08-03T15:05:55.825Z,13.46
2022-08-03T15:08:25.007Z,11.83
2022-08-03T15:10:53.092Z,10.59
2022-08-03T15:13:20.893Z,10.17
2022-08-03T15:15:48.015Z,11.24
2022-08-03T15:18:15.053Z,12.31
2022-08-03T15:20:46.315Z,10.83
2022-08-03T15:23:15.488Z,9.94
2022-08-03T15:26:03.829Z,9.00
2022-08-03T15:28:31.781Z,8.99
2022-08-03T15:30:58.667Z,8.70
2022-08-03T15:33:25.458Z,8.06
2022-08-03T15:35:53.087Z,8.05
2022-08-03T15:38:22.855Z,7.48
2022-08-03T15:40:55.942Z,6.93
2022-08-03T15:43:23.665Z,7.43
2022-08-03T15:46:12.809Z,7.25
2022-08-03T15:48:37.703Z,7.27
2022-08-03T15:51:05.596Z,8.42
2022-08-03T15:53:33.634Z,8.17
2022-08-03T15:56:04.235Z,7.87
2022-08-03T15:59:04.117Z,7.29
2022-08-03T16:01:21.501Z,9.01
2022-08-03T16:03:48.323Z,10.21
2022-08-03T16:06:15.142Z,9.41
2022-08-03T16:08:42.714Z,8.61
2022-08-03T16:11:09.676Z,9.39
2022-08-03T16:14:13.120Z,9.02
2022-08-03T16:16:23.404Z,8.50
2022-08-03T16:18:50.234Z,10.82
2022-08-03T16:21:19.443Z,10.48
2022-08-03T16:23:47.214Z,8.75
2022-08-03T16:26:14.472Z,8.97
2022-08-03T16:28:41.468Z,8.85
2022-08-03T16:31:09.206Z,8.10
2022-08-03T16:33:36.463Z,7.97
2022-08-03T16:36:03.638Z,7.34
2022-08-03T16:38:30.588Z,6.95
2022-08-03T16:40:57.452Z,7.45
2022-08-03T16:43:24.752Z,8.65
2022-08-03T16:45:52.137Z,9.71
2022-08-03T16:48:19.368Z,9.46
2022-08-03T16:50:46.204Z,11.25
2022-08-03T16:53:16.405Z,11.71
2022-08-03T16:55:53.449Z,11.81
2022-08-03T16:58:41.566Z,10.92
2022-08-03T17:01:21.988Z,10.03
2022-08-03T17:04:02.534Z,8.94
2022-08-03T17:06:36.448Z,8.17
2022-08-03T17:09:18.173Z,8.19
2022-08-03T17:11:47.892Z,7.75
2022-08-03T17:14:21.873Z,6.90
2022-08-03T17:16:54.279Z,7.73
2022-08-03T17:19:24.082Z,6.73
2022-08-03T17:22:04.780Z,7.05
2022-08-03T17:24:41.093Z,7.03
2022-08-03T17:28:42.346Z,7.10
2022-08-03T17:30:11.967Z,6.99
2022-08-03T17:32:52.606Z,7.55
2022-08-03T17:35:23.925Z,7.51
2022-08-03T17:37:58.388Z,7.10
2022-08-03T17:40:31.437Z,7.76
2022-08-03T17:43:00.733Z,8.65
2022-08-03T17:45:52.060Z,10.02
2022-08-03T17:48:18.373Z,10.19
2022-08-03T17:51:00.058Z,10.76
2022-08-03T17:53:36.761Z,11.07
2022-08-03T17:56:44.595Z,12.06
2022-08-03T17:59:50.971Z,13.00
2022-08-03T18:02:50.342Z,13.49
2022-08-03T18:05:21.658Z,14.19
2022-08-03T18:08:01.668Z,14.72
2022-08-03T18:10:35.793Z,15.27
2022-08-03T18:13:20.993Z,16.28
2022-08-03T18:16:00.002Z,16.93
2022-08-03T18:18:45.077Z,17.97
2022-08-03T18:21:17.062Z,17.81
2022-08-03T18:23:45.973Z,17.77
2022-08-03T18:26:17.285Z,17.90
2022-08-03T18:28:44.330Z,19.52
2022-08-03T18:31:59.882Z,19.34
2022-08-03T18:34:16.179Z,19.80
2022-08-03T18:36:54.855Z,20.26
2022-08-03T18:39:23.329Z,19.75
2022-08-03T18:41:51.495Z,19.39
2022-08-03T18:44:37.410Z,20.80
2022-08-03T18:48:18.741Z,20.26
2022-08-03T18:50:58.047Z,21.32
2022-08-03T18:54:03.149Z,20.96
2022-08-03T18:56:57.185Z,22.57
2022-08-03T18:59:51.468Z,21.64
2022-08-03T19:02:56.153Z,21.63
2022-08-03T19:05:56.434Z,21.24
2022-08-03T19:08:26.142Z,21.61
2022-08-03T19:11:00.798Z,22.75
2022-08-03T19:13:53.539Z,22.38
2022-08-03T19:16:39.442Z,23.03
2022-08-03T19:19:14.538Z,22.74
2022-08-03T19:21:41.995Z,23.88
2022-08-03T19:24:10.205Z,23.12
2022-08-03T19:26:39.684Z,22.96
2022-08-03T19:29:14.868Z,22.72
2022-08-03T19:31:49.262Z,23.01
2022-08-03T19:34:28.363Z,23.31
2022-08-03T19:37:00.795Z,24.20
2022-08-03T19:39:29.131Z,22.91
2022-08-03T19:42:12.127Z,22.09
2022-08-03T19:44:53.647Z,22.09
2022-08-03T19:47:31.998Z,23.19
2022-08-03T19:50:06.067Z,23.25
2022-08-03T19:52:43.731Z,22.42
2022-08-03T19:55:12.385Z,22.24
2022-08-03T19:57:43.543Z,23.05
2022-08-03T20:00:14.214Z,23.36
2022-08-03T20:02:42.069Z,23.83
2022-08-03T20:05:14.923Z,24.44
2022-08-03T20:07:47.699Z,24.09
2022-08-03T20:10:17.655Z,24.14
2022-08-03T20:12:46.220Z,23.94
2022-08-03T20:15:13.131Z,23.46
2022-08-03T20:17:56.567Z,23.55
2022-08-03T20:20:34.708Z,24.17
2022-08-03T20:23:11.253Z,23.29
2022-08-03T20:25:57.464Z,23.34
2022-08-03T20:28:50.262Z,23.74
2022-08-03T20:31:21.655Z,23.93
2022-08-03T20:33:50.777Z,24.19
2022-08-03T20:36:18.820Z,23.74
2022-08-03T20:38:48.184Z,25.89
2022-08-03T20:41:17.029Z,25.36
2022-08-03T20:43:44.951Z,25.55
2022-08-03T20:46:31.782Z,25.81
2022-08-03T20:49:03.983Z,25.71
2022-08-03T20:51:50.317Z,25.74
2022-08-03T20:54:31.273Z,25.70
2022-08-03T20:59:51.457Z,25.87
2022-08-03T21:02:30.018Z,25.90
2022-08-03T21:05:03.248Z,25.91
2022-08-03T21:08:03.779Z,25.68
2022-08-03T21:10:31.175Z,25.74
2022-08-03T21:13:12.721Z,25.84
2022-08-03T21:13:23.357Z,26.08
2022-08-03T21:16:06.493Z,25.88
2022-08-03T21:18:49.670Z,25.99
2022-08-03T21:21:20.840Z,25.63
2022-08-03T21:23:53.915Z,26.05
2022-08-03T21:26:24.343Z,25.95
2022-08-03T21:28:54.896Z,26.20
2022-08-03T21:31:24.635Z,27.21
2022-08-03T21:34:05.831Z,27.97
2022-08-03T21:36:37.695Z,28.85
2022-08-03T21:39:08.522Z,29.43
2022-08-03T21:41:37.872Z,30.03
2022-08-03T21:44:05.979Z,29.35
2022-08-03T21:46:39.825Z,29.52
2022-08-03T21:50:05.267Z,29.26
2022-08-03T21:51:59.566Z,29.50
2022-08-03T21:54:40.870Z,29.21
2022-08-03T21:57:24.494Z,29.07
2022-08-03T21:59:57.287Z,31.05
2022-08-03T22:02:32.038Z,33.09
2022-08-03T22:04:59.032Z,36.64
2022-08-03T22:07:28.935Z,34.50
2022-08-03T22:09:57.286Z,35.88
2022-08-03T22:12:27.257Z,36.13
2022-08-03T22:15:00.418Z,33.73
2022-08-03T22:17:53.701Z,32.44
2022-08-03T22:20:19.378Z,30.88
2022-08-03T22:22:50.169Z,31.10
2022-08-03T22:25:28.646Z,30.49
2022-08-03T22:27:56.272Z,31.89
2022-08-03T22:30:23.113Z,33.69
2022-08-03T22:32:51.978Z,32.79
2022-08-03T22:35:21.511Z,33.07
2022-08-03T22:37:54.937Z,32.26
2022-08-03T22:40:22.004Z,31.26
2022-08-03T22:42:50.593Z,31.22
2022-08-03T22:46:07.648Z,31.63
2022-08-03T22:48:08.530Z,32.41
2022-08-03T22:50:35.607Z,31.98
2022-08-03T22:53:02.915Z,31.57
2022-08-03T22:55:30.058Z,33.51
2022-08-03T22:57:56.861Z,34.15
2022-08-03T23:00:24.409Z,33.80
2022-08-03T23:02:54.041Z,33.07
2022-08-03T23:06:00.772Z,32.80
2022-08-03T23:08:16.731Z,32.52
2022-08-03T23:10:47.248Z,33.06
2022-08-03T23:13:17.509Z,33.48
2022-08-03T23:15:57.557Z,33.54
2022-08-03T23:18:28.767Z,34.90
2022-08-03T23:21:00.747Z,34.11
2022-08-03T23:23:44.643Z,33.53
2022-08-03T23:26:14.855Z,33.51
2022-08-03T23:28:46.691Z,34.01
2022-08-03T23:31:15.649Z,33.58
2022-08-03T23:33:44.970Z,33.59
2022-08-03T23:36:30.686Z,33.42
2022-08-03T23:39:02.823Z,33.80
2022-08-03T23:41:31.919Z,33.74
2022-08-03T23:44:01.182Z,33.36
2022-08-03T23:46:30.329Z,33.62
2022-08-03T23:49:00.424Z,33.58
2022-08-03T23:51:35.565Z,33.61
2022-08-03T23:54:33.567Z,33.88
2022-08-03T23:57:28.997Z,34.33
